Pandora, TX (78143)

5:38 PM CST on February 06, 2016 (GMT -0600)
Cowey Road Ranch | | Change Station
CLOSE
Current Station
Personal Weather Station
Location: Nixon, TX
Elevation: 528 ft
Nearby Weather Stations

Elev 528 ft 29.39 °N, 97.84 °W | Updated 12 minutes ago

Clear
Clear
59.7 °F
Feels Like 59.7 °F
N
6.0
Wind Variable Wind from NW
Gusts 14.0 mph

Today
High -- | Low -- °F
--% Chance of Precip.
Yesterday
High -- | Low -- °F
Precip. -- in
Pressure 30.33 in
Visibility 10.0 miles
Clouds Clear
Dew Point 22 °F
Humidity 23%
Rainfall 0.00 in
Snow Depth Not available.
7:17 AM 6:13 PM
Waning Crescent, 3% visible
METAR KT20 062315Z AUTO 36013G18KT 10SM CLR 15/M02 A3033 RMK AO2 T01521024
Pressure 30.33 in
Visibility 10.0 miles
Clouds Clear
Dew Point 22 °F
Humidity 23%
Rainfall 0.00 in
Snow Depth Not available.
7:17 AM 6:13 PM
Waning Crescent, 3% visible
METAR KT20 062315Z AUTO 36013G18KT 10SM CLR 15/M02 A3033 RMK AO2 T01521024

10-Day Weather Forecast

Almanac

Astronomy

Feb. 06, 2016 Rise Set
Actual Time
Civil Twilight
Nautical Twilight
Astronomical Twilight
Moon
Length of Visible Light
Length of Day
Tomorrow will be .
, % of the Moon is Illuminated

Today's Extremes

State Highs State Lows

Community

WunderPhotos

Upload Photos

1,891,098 photos uploaded!

WunderBlog® & News

Nearby

Air Quality

  Air Quality AQ Index Pollutant
Not available.

Snow Depth

Station Depth Elevation

Earthquake Activity

City Distance Mag. Time & Date
Minimum magnitude displayed is 2.5.

Coastal Water Temperatures

Place Temperature

Stations

Nearby Weather Stations

Station Location Temp. Windchill Dew Point Humidity Wind Precip. Elev Updated Type
                   

Watches & Warnings

There are currently no watches in effect.